Portada
METAR-TAF:

METAR-TAF

Aeropuertos :

Shanghái-Pudong, China

Aeropuerto Internacional de Shanghái-Pudong

latitud: 31-07N, longitud: 121-46E, altitud: 4 m

Observación

El informe se hizo hace 30 minutos, a las 01:00 UTC
Viento 14 kt del norte-noreste
Temperatura 3°C
Humedad 56%
Presión 1030 hPa
Visibilidad 10 km o más
Nubes dispersas a una altura de 3000 ft

METAR: ZSPD 240100Z 02007MPS 9999 SCT030 03/M05 Q1030 NOSIG

Hora: 09:30 (01:30 UTC)

Pronóstico

El informe se hizo hace 4 horas y 14 minutos, a las 21:16 UTC
Pronóstico válido del 24 a las 00 UTC al 24 a las 24 UTC
Viento 14 kt del norte-noreste
Visibilidad: 6000 m
Cielo nuboso a una altura de 1300 ft

TAF: ZSPD 232116Z 2400/2424 03007MPS 6000 BKN013 TX04/2406Z TN00/2421Z

Observaciones y pronósticos meteorológicos de más de 4000 aeropuertos (mensajes METAR y TAF).

Los puntos amarillos y rojos representan las estaciones disponibles.

Ponga el ratón en el punto deseado para ver el nombre de la estación.

Haga clic para ver las observaciones y los pronósticos meteorológicos.

Para cambiar el mapa : haga clic en los botones verdes con una cruz de color negro para hacer un zoom, en el botón verde con un guión para alejar o en las flechas verdes para mapas adyacentes.


METAR-TAF: